Time;durP1;ratioP1;P1;durP2;ratioP2;P2;SDS_P1;SDS_P2;PMS_P1;PMS_P2;Temp;Humidity;BMP_temperature;BMP_pressure;BME280_temperature;BME280_humidity;BME280_pressure;Samples;Min_cycle;Max_cycle;Signal;HPM_P1;HPM_P2
2020/12/24 00:18:54;;;;;;;19.83;2.67;;;10.00;99.90;;;;;;4924501;29;20583;-90
2020/12/24 00:21:20;;;;;;;13.70;2.63;;;10.00;99.90;;;;;;4918703;29;20710;-91
2020/12/24 00:23:47;;;;;;;11.03;2.53;;;10.10;99.90;;;;;;4919290;29;20207;-91
2020/12/24 00:26:13;;;;;;;10.47;2.67;;;9.90;99.90;;;;;;4918979;29;20218;-90
2020/12/24 01:34:05;;;;;;;12.70;2.40;;;9.20;99.90;;;;;;687875;23;20605;-85
2020/12/24 01:36:32;;;;;;;12.23;2.10;;;9.30;99.90;;;;;;4916812;29;20274;-90
2020/12/24 01:38:59;;;;;;;9.93;2.43;;;9.40;99.90;;;;;;4901138;29;20211;-92
2020/12/24 01:41:25;;;;;;;17.23;2.70;;;9.30;99.90;;;;;;4918357;29;20243;-91
2020/12/24 01:43:52;;;;;;;19.93;2.93;;;9.40;99.90;;;;;;4901074;29;20214;-91
2020/12/24 01:46:18;;;;;;;14.73;2.80;;;9.40;99.90;;;;;;4918347;29;20211;-91
2020/12/24 01:48:44;;;;;;;11.47;1.80;;;9.30;99.90;;;;;;4917848;29;20211;-91
2020/12/24 01:51:13;;;;;;;11.97;2.47;;;9.30;99.90;;;;;;4920226;29;20250;-90
2020/12/24 01:53:41;;;;;;;9.63;2.43;;;9.20;99.90;;;;;;4921465;29;20306;-91
2020/12/24 01:56:07;;;;;;;10.73;2.33;;;9.30;99.90;;;;;;4921128;29;20214;-91
2020/12/24 01:58:33;;;;;;;9.77;2.43;;;9.30;99.90;;;;;;4922028;29;20207;-93
2020/12/24 02:01:00;;;;;;;14.33;2.70;;;9.30;99.90;;;;;;4904807;29;20231;-90
2020/12/24 02:03:26;;;;;;;13.00;2.50;;;9.40;99.90;;;;;;4921506;29;20218;-90
2020/12/24 02:05:52;;;;;;;12.83;2.50;;;9.30;99.90;;;;;;4921749;29;20217;-91
2020/12/24 02:08:19;;;;;;;14.20;2.40;;;9.40;99.90;;;;;;4921940;29;20215;-87
2020/12/24 02:17:36;;;;;;;11.33;2.87;;;9.60;99.90;;;;;;4961324;28;20305;-86
2020/12/24 06:33:46;;;;;;;14.93;6.27;;;7.30;99.90;;;;;;4995173;28;20200;-86
2020/12/24 06:39:44;;;;;;;13.93;8.20;;;7.10;99.90;;;;;;4995268;28;20217;-86
2020/12/24 06:42:57;;;;;;;14.40;9.13;;;7.00;99.90;;;;;;4999061;28;20225;-86
2020/12/24 06:51:58;;;;;;;25.83;20.23;;;6.60;99.90;;;;;;5017049;28;20224;-86
2020/12/24 06:54:54;;;;;;;24.40;20.53;;;6.60;99.90;;;;;;5018050;28;20204;-86
2020/12/24 06:57:32;;;;;;;22.23;19.43;;;6.60;99.90;;;;;;5018987;28;20209;-86
2020/12/24 07:00:23;;;;;;;18.70;16.70;;;6.40;99.90;;;;;;5018329;28;20215;-86
2020/12/24 07:03:45;;;;;;;9.10;7.50;;;6.40;99.90;;;;;;5019751;28;20193;-86
2020/12/24 07:08:57;;;;;;;3.03;2.93;;;6.40;99.90;;;;;;5017479;28;20228;-86
2020/12/24 07:11:44;;;;;;;3.07;2.87;;;6.50;99.90;;;;;;5015774;28;20263;-85
2020/12/24 07:14:40;;;;;;;3.13;2.97;;;6.50;99.90;;;;;;5016729;28;20208;-86
2020/12/24 07:20:12;;;;;;;3.40;3.10;;;6.20;99.90;;;;;;5015741;28;20466;-86
2020/12/24 07:22:47;;;;;;;3.10;2.90;;;6.10;99.90;;;;;;5000768;28;20438;-86
2020/12/24 07:25:18;;;;;;;2.10;2.00;;;6.10;99.90;;;;;;5017337;28;20188;-85
2020/12/24 07:27:51;;;;;;;3.10;2.10;;;6.00;99.90;;;;;;5016066;28;20474;-86
2020/12/24 07:30:24;;;;;;;2.70;2.50;;;5.90;99.90;;;;;;5029643;23;20518;-85
2020/12/24 07:33:02;;;;;;;2.70;2.60;;;6.00;99.90;;;;;;4998558;28;20540;-86
2020/12/24 07:35:51;;;;;;;2.83;2.63;;;5.90;99.90;;;;;;5015936;28;20460;-86
2020/12/24 07:38:28;;;;;;;2.77;2.60;;;5.80;99.90;;;;;;5016680;28;20462;-85
2020/12/24 07:40:55;;;;;;;2.70;2.50;;;5.80;99.90;;;;;;5016675;28;20478;-85
2020/12/24 07:43:37;;;;;;;2.03;1.93;;;5.70;99.90;;;;;;4999820;28;20443;-86
2020/12/24 07:46:09;;;;;;;2.43;2.30;;;5.70;99.90;;;;;;5016328;28;20450;-86
2020/12/24 07:48:38;;;;;;;2.20;2.10;;;5.70;99.90;;;;;;5015767;28;20220;-86
2020/12/24 07:53:56;;;;;;;1.47;1.47;;;5.80;99.90;;;;;;4994905;28;20892;-86
2020/12/24 07:56:29;;;;;;;1.50;1.40;;;5.70;99.90;;;;;;4997765;28;20431;-86
2020/12/24 08:02:11;;;;;;;1.00;1.00;;;5.80;99.90;;;;;;4996278;28;20225;-86
2020/12/24 08:36:14;;;;;;;0.60;0.60;;;6.00;99.90;;;;;;4983713;23;20499;-86
2020/12/24 08:38:45;;;;;;;0.63;0.60;;;6.00;99.90;;;;;;4975818;29;20437;-85
2020/12/24 08:54:18;;;;;;;0.63;0.63;;;6.20;99.90;;;;;;5004233;23;20246;-85
2020/12/24 08:56:56;;;;;;;0.50;0.50;;;6.20;99.90;;;;;;4978888;28;20237;-85
2020/12/24 08:59:28;;;;;;;1.20;0.80;;;6.20;99.90;;;;;;4996435;28;20212;-86
2020/12/24 09:05:30;;;;;;;0.77;0.77;;;6.20;99.90;;;;;;4955788;29;20210;-85
2020/12/24 09:08:04;;;;;;;1.20;0.82;;;6.40;99.90;;;;;;4956599;29;20431;-86
2020/12/24 09:10:36;;;;;;;2.23;1.00;;;6.40;99.90;;;;;;4935369;29;20315;-86
2020/12/24 09:13:11;;;;;;;1.63;0.90;;;6.30;99.90;;;;;;4920605;29;20215;-85
2020/12/24 09:15:44;;;;;;;4.07;0.93;;;6.30;99.90;;;;;;4938751;29;20241;-86
2020/12/24 09:24:10;;;;;;;2.70;1.00;;;6.40;99.90;;;;;;4938478;29;20186;-87
2020/12/24 09:27:08;;;;;;;1.70;1.07;;;6.50;99.90;;;;;;4937784;29;20222;-85
2020/12/24 09:29:44;;;;;;;1.47;1.30;;;6.50;99.90;;;;;;4915227;29;20258;-86
2020/12/24 09:32:25;;;;;;;1.90;1.13;;;6.50;99.90;;;;;;4937998;29;20238;-86
2020/12/24 09:34:58;;;;;;;3.30;1.20;;;6.60;99.90;;;;;;4939375;29;20235;-86
2020/12/24 09:46:46;;;;;;;4.43;1.30;;;6.90;99.90;;;;;;4995880;28;20205;-85
2020/12/24 09:49:42;;;;;;;1.10;0.90;;;6.90;99.90;;;;;;4995085;28;20204;-86
2020/12/24 11:05:31;;;;;;;5.57;0.90;;;6.60;99.90;;;;;;4972875;29;20237;-86
2020/12/24 11:13:20;;;;;;;5.10;0.87;;;6.60;99.90;;;;;;5012328;23;20312;-86
2020/12/24 11:15:57;;;;;;;3.30;1.13;;;6.60;99.90;;;;;;4997935;28;20198;-85
2020/12/24 11:18:27;;;;;;;2.33;0.80;;;6.60;99.90;;;;;;4990393;28;20233;-86
2020/12/24 11:21:25;;;;;;;0.70;0.70;;;6.70;99.90;;;;;;4979153;29;20229;-85
2020/12/24 11:24:04;;;;;;;4.90;1.00;;;6.80;99.90;;;;;;4977574;28;20233;-85
2020/12/24 11:27:02;;;;;;;3.10;1.00;;;6.80;99.90;;;;;;4978241;29;20213;-86
2020/12/24 11:38:32;;;;;;;1.70;0.73;;;6.90;99.90;;;;;;4980620;28;20217;-86
2020/12/24 11:41:05;;;;;;;1.83;0.87;;;7.10;99.90;;;;;;4976694;29;20277;-86
2020/12/24 11:43:46;;;;;;;2.97;0.90;;;7.20;99.90;;;;;;4979255;29;20206;-86
2020/12/24 11:47:03;;;;;;;4.50;1.37;;;7.30;99.90;;;;;;4968749;29;20201;-86
2020/12/24 12:57:24;;;;;;;5.50;1.40;;;7.30;99.90;;;;;;4995027;28;20209;-86
2020/12/24 12:59:57;;;;;;;7.13;1.40;;;7.30;99.90;;;;;;4994275;28;20205;-85
2020/12/24 13:08:19;;;;;;;3.50;1.83;;;7.40;99.90;;;;;;4976404;29;20205;-86
2020/12/24 13:59:28;;;;;;;15.97;6.33;;;7.50;99.90;;;;;;4944859;28;20254;-86
2020/12/24 14:02:17;;;;;;;8.13;2.57;;;7.50;99.90;;;;;;4926595;29;20227;-86
2020/12/24 14:42:44;;;;;;;2.57;1.47;;;5.90;99.90;;;;;;5316207;23;20234;-85
2020/12/24 14:45:19;;;;;;;5.43;1.07;;;5.90;99.90;;;;;;4956680;29;20453;-86
2020/12/24 14:48:11;;;;;;;3.23;1.10;;;6.00;99.90;;;;;;4960554;29;20225;-86
2020/12/24 14:54:03;;;;;;;7.27;1.23;;;6.10;99.90;;;;;;4960670;29;20432;-86
2020/12/24 14:56:48;;;;;;;7.53;1.10;;;6.10;99.90;;;;;;4958120;29;20218;-85
2020/12/24 14:59:21;;;;;;;6.27;1.50;;;6.10;99.90;;;;;;4957219;29;20218;-84
2020/12/24 15:01:59;;;;;;;5.20;1.23;;;6.20;99.90;;;;;;4955649;29;20461;-85
2020/12/24 15:04:28;;;;;;;4.13;1.67;;;6.20;99.90;;;;;;4940218;29;20222;-87
2020/12/24 15:06:55;;;;;;;3.87;1.00;;;6.20;99.90;;;;;;4938311;29;20275;-85
